sensor_id;sensor_type;location;lat;lon;timestamp;pressure;altitude;pressure_sealevel;temperature;humidity
81999;BME280;71598;46.516;-122.928;2023-11-21T00:00:52;101405.68;;;23.53;19.24
81999;BME280;71598;46.516;-122.928;2023-11-21T00:03:18;101402.05;;;23.99;19.19
81999;BME280;71598;46.516;-122.928;2023-11-21T00:05:44;101404.03;;;24.09;19.04
81999;BME280;71598;46.516;-122.928;2023-11-21T00:08:10;101404.25;;;23.73;19.09
81999;BME280;71598;46.516;-122.928;2023-11-21T00:10:35;101407.37;;;23.83;19.16
81999;BME280;71598;46.516;-122.928;2023-11-21T00:12:59;101408.04;;;23.73;19.14
81999;BME280;71598;46.516;-122.928;2023-11-21T00:15:26;101406.00;;;23.87;18.94
81999;BME280;71598;46.516;-122.928;2023-11-21T00:17:51;101411.57;;;23.46;19.27
81999;BME280;71598;46.516;-122.928;2023-11-21T00:20:17;101407.72;;;23.42;19.38
81999;BME280;71598;46.516;-122.928;2023-11-21T00:22:43;101410.25;;;23.62;19.19
81999;BME280;71598;46.516;-122.928;2023-11-21T00:25:09;101407.52;;;23.69;19.19
81999;BME280;71598;46.516;-122.928;2023-11-21T00:27:35;101400.26;;;22.80;19.33
81999;BME280;71598;46.516;-122.928;2023-11-21T00:29:59;101397.50;;;23.38;18.95
81999;BME280;71598;46.516;-122.928;2023-11-21T00:32:25;101400.06;;;23.97;18.94
81999;BME280;71598;46.516;-122.928;2023-11-21T00:34:50;101401.09;;;24.23;18.88
81999;BME280;71598;46.516;-122.928;2023-11-21T00:37:16;101397.95;;;23.85;18.89
81999;BME280;71598;46.516;-122.928;2023-11-21T00:39:41;101395.44;;;24.08;19.01
81999;BME280;71598;46.516;-122.928;2023-11-21T00:42:09;101393.62;;;23.72;19.14
81999;BME280;71598;46.516;-122.928;2023-11-21T00:44:31;101396.95;;;23.48;19.28
81999;BME280;71598;46.516;-122.928;2023-11-21T00:46:57;101393.84;;;24.22;19.02
81999;BME280;71598;46.516;-122.928;2023-11-21T00:49:22;101393.42;;;23.76;19.22
81999;BME280;71598;46.516;-122.928;2023-11-21T00:51:47;101399.60;;;23.22;19.47
81999;BME280;71598;46.516;-122.928;2023-11-21T00:54:13;101401.67;;;23.48;19.30
81999;BME280;71598;46.516;-122.928;2023-11-21T00:56:38;101399.02;;;23.54;19.45
81999;BME280;71598;46.516;-122.928;2023-11-21T00:59:04;101398.07;;;23.56;19.42
81999;BME280;71598;46.516;-122.928;2023-11-21T01:01:29;101400.20;;;23.25;19.46
81999;BME280;71598;46.516;-122.928;2023-11-21T01:03:54;101401.83;;;23.07;19.63
81999;BME280;71598;46.516;-122.928;2023-11-21T01:06:19;101401.52;;;22.85;19.86
81999;BME280;71598;46.516;-122.928;2023-11-21T01:08:45;101397.55;;;22.49;20.09
81999;BME280;71598;46.516;-122.928;2023-11-21T01:11:10;101398.28;;;22.95;19.77
81999;BME280;71598;46.516;-122.928;2023-11-21T01:13:35;101390.06;;;22.57;20.04
81999;BME280;71598;46.516;-122.928;2023-11-21T01:16:00;101391.84;;;22.75;19.99
81999;BME280;71598;46.516;-122.928;2023-11-21T01:18:26;101389.76;;;22.79;19.88
81999;BME280;71598;46.516;-122.928;2023-11-21T01:20:51;101383.88;;;22.23;20.18
81999;BME280;71598;46.516;-122.928;2023-11-21T01:23:16;101378.99;;;22.76;19.93
81999;BME280;71598;46.516;-122.928;2023-11-21T01:25:42;101376.63;;;22.94;19.78
81999;BME280;71598;46.516;-122.928;2023-11-21T01:28:07;101384.95;;;23.07;19.78
81999;BME280;71598;46.516;-122.928;2023-11-21T01:30:34;101387.98;;;23.13;19.73
81999;BME280;71598;46.516;-122.928;2023-11-21T01:32:58;101390.65;;;23.16;19.82
81999;BME280;71598;46.516;-122.928;2023-11-21T01:35:23;101392.93;;;23.08;19.90
81999;BME280;71598;46.516;-122.928;2023-11-21T01:37:49;101392.58;;;23.48;19.79
81999;BME280;71598;46.516;-122.928;2023-11-21T01:40:13;101388.88;;;23.55;19.73
81999;BME280;71598;46.516;-122.928;2023-11-21T01:42:39;101384.81;;;23.28;19.67
81999;BME280;71598;46.516;-122.928;2023-11-21T01:45:06;101378.74;;;23.66;19.67
81999;BME280;71598;46.516;-122.928;2023-11-21T01:47:32;101376.93;;;23.90;19.48
81999;BME280;71598;46.516;-122.928;2023-11-21T01:50:01;101382.14;;;24.43;19.34
81999;BME280;71598;46.516;-122.928;2023-11-21T01:52:21;101392.97;;;23.59;19.58
81999;BME280;71598;46.516;-122.928;2023-11-21T01:54:47;101397.71;;;23.60;19.69
81999;BME280;71598;46.516;-122.928;2023-11-21T01:57:15;101407.66;;;23.39;19.66
81999;BME280;71598;46.516;-122.928;2023-11-21T01:59:38;101406.30;;;22.92;19.80
81999;BME280;71598;46.516;-122.928;2023-11-21T02:02:05;101393.06;;;22.41;20.03
81999;BME280;71598;46.516;-122.928;2023-11-21T02:04:29;101385.95;;;22.96;19.75
81999;BME280;71598;46.516;-122.928;2023-11-21T02:06:55;101384.95;;;23.03;19.73
81999;BME280;71598;46.516;-122.928;2023-11-21T02:09:25;101396.56;;;23.29;19.41
81999;BME280;71598;46.516;-122.928;2023-11-21T02:11:46;101399.96;;;23.60;19.37
81999;BME280;71598;46.516;-122.928;2023-11-21T02:14:11;101393.70;;;23.63;19.36
81999;BME280;71598;46.516;-122.928;2023-11-21T02:16:37;101379.75;;;23.04;19.63
81999;BME280;71598;46.516;-122.928;2023-11-21T02:19:07;101373.26;;;23.19;19.56
81999;BME280;71598;46.516;-122.928;2023-11-21T02:21:28;101373.23;;;23.65;19.34
81999;BME280;71598;46.516;-122.928;2023-11-21T02:23:54;101375.82;;;23.45;19.45
81999;BME280;71598;46.516;-122.928;2023-11-21T02:26:19;101376.87;;;22.92;19.81
81999;BME280;71598;46.516;-122.928;2023-11-21T02:28:45;101371.62;;;23.35;19.61
81999;BME280;71598;46.516;-122.928;2023-11-21T02:31:12;101379.18;;;23.90;19.27
81999;BME280;71598;46.516;-122.928;2023-11-21T02:33:37;101374.80;;;23.90;19.38
81999;BME280;71598;46.516;-122.928;2023-11-21T02:36:02;101368.97;;;23.59;19.47
81999;BME280;71598;46.516;-122.928;2023-11-21T02:38:28;101368.00;;;23.44;19.73
81999;BME280;71598;46.516;-122.928;2023-11-21T02:40:52;101366.60;;;23.31;18.61
81999;BME280;71598;46.516;-122.928;2023-11-21T02:43:17;101366.87;;;22.58;19.44
81999;BME280;71598;46.516;-122.928;2023-11-21T02:45:43;101369.94;;;22.54;19.87
81999;BME280;71598;46.516;-122.928;2023-11-21T02:48:09;101360.13;;;23.39;19.62
81999;BME280;71598;46.516;-122.928;2023-11-21T02:50:34;101349.69;;;23.02;19.90
81999;BME280;71598;46.516;-122.928;2023-11-21T02:53:00;101340.30;;;23.58;19.74
81999;BME280;71598;46.516;-122.928;2023-11-21T02:55:26;101339.22;;;23.35;19.77
81999;BME280;71598;46.516;-122.928;2023-11-21T02:57:51;101342.79;;;23.44;19.87
81999;BME280;71598;46.516;-122.928;2023-11-21T03:00:17;101338.98;;;23.23;19.86
81999;BME280;71598;46.516;-122.928;2023-11-21T03:02:43;101341.15;;;23.85;19.68
81999;BME280;71598;46.516;-122.928;2023-11-21T03:05:08;101343.17;;;24.79;19.20
81999;BME280;71598;46.516;-122.928;2023-11-21T03:07:32;101341.59;;;24.39;19.18
81999;BME280;71598;46.516;-122.928;2023-11-21T03:09:58;101335.36;;;23.92;19.46
81999;BME280;71598;46.516;-122.928;2023-11-21T03:12:23;101334.67;;;23.29;19.86
81999;BME280;71598;46.516;-122.928;2023-11-21T03:14:49;101341.67;;;23.14;20.11
81999;BME280;71598;46.516;-122.928;2023-11-21T03:17:15;101345.26;;;22.70;20.11
81999;BME280;71598;46.516;-122.928;2023-11-21T03:19:40;101349.42;;;22.61;20.49
81999;BME280;71598;46.516;-122.928;2023-11-21T03:22:05;101347.91;;;22.40;20.64
81999;BME280;71598;46.516;-122.928;2023-11-21T03:24:32;101343.47;;;22.35;20.74
81999;BME280;71598;46.516;-122.928;2023-11-21T03:26:56;101338.83;;;22.73;20.56
81999;BME280;71598;46.516;-122.928;2023-11-21T03:29:22;101337.36;;;23.34;20.24
81999;BME280;71598;46.516;-122.928;2023-11-21T03:31:47;101331.75;;;24.11;19.65
81999;BME280;71598;46.516;-122.928;2023-11-21T03:34:16;101330.06;;;24.77;19.28
81999;BME280;71598;46.516;-122.928;2023-11-21T03:36:38;101321.96;;;25.10;18.94
81999;BME280;71598;46.516;-122.928;2023-11-21T03:39:03;101319.62;;;25.46;18.71
81999;BME280;71598;46.516;-122.928;2023-11-21T03:41:28;101320.55;;;26.01;18.54
81999;BME280;71598;46.516;-122.928;2023-11-21T03:43:54;101317.35;;;26.41;18.41
81999;BME280;71598;46.516;-122.928;2023-11-21T03:46:19;101316.02;;;26.09;18.18
81999;BME280;71598;46.516;-122.928;2023-11-21T03:48:46;101319.54;;;26.31;18.11
81999;BME280;71598;46.516;-122.928;2023-11-21T03:51:10;101325.43;;;26.21;17.96
81999;BME280;71598;46.516;-122.928;2023-11-21T03:53:35;101329.06;;;26.30;17.92
81999;BME280;71598;46.516;-122.928;2023-11-21T03:56:04;101326.70;;;26.67;17.80
81999;BME280;71598;46.516;-122.928;2023-11-21T03:58:25;101325.86;;;27.06;17.72
81999;BME280;71598;46.516;-122.928;2023-11-21T04:00:50;101322.48;;;27.04;17.63
81999;BME280;71598;46.516;-122.928;2023-11-21T04:03:16;101318.26;;;26.99;17.78
81999;BME280;71598;46.516;-122.928;2023-11-21T04:05:41;101318.24;;;27.23;17.78
81999;BME280;71598;46.516;-122.928;2023-11-21T04:08:07;101319.42;;;27.09;17.72
81999;BME280;71598;46.516;-122.928;2023-11-21T04:10:34;101317.37;;;27.27;17.63
81999;BME280;71598;46.516;-122.928;2023-11-21T04:12:58;101311.65;;;27.10;17.61
81999;BME280;71598;46.516;-122.928;2023-11-21T04:15:24;101304.09;;;26.96;17.67
81999;BME280;71598;46.516;-122.928;2023-11-21T04:17:49;101299.74;;;26.71;17.68
81999;BME280;71598;46.516;-122.928;2023-11-21T04:20:14;101298.26;;;26.39;17.97
81999;BME280;71598;46.516;-122.928;2023-11-21T04:22:40;101295.40;;;26.41;18.05
81999;BME280;71598;46.516;-122.928;2023-11-21T04:25:06;101295.81;;;26.21;18.04
81999;BME280;71598;46.516;-122.928;2023-11-21T04:27:31;101297.25;;;26.13;17.97
81999;BME280;71598;46.516;-122.928;2023-11-21T04:29:58;101306.79;;;26.64;17.98
81999;BME280;71598;46.516;-122.928;2023-11-21T04:32:23;101310.60;;;26.14;18.01
81999;BME280;71598;46.516;-122.928;2023-11-21T04:34:48;101311.04;;;26.26;17.92
81999;BME280;71598;46.516;-122.928;2023-11-21T04:37:13;101306.96;;;26.20;18.02
81999;BME280;71598;46.516;-122.928;2023-11-21T04:39:39;101298.74;;;25.81;18.05
81999;BME280;71598;46.516;-122.928;2023-11-21T04:42:05;101293.97;;;25.77;18.01
81999;BME280;71598;46.516;-122.928;2023-11-21T04:44:30;101294.17;;;26.15;18.02
81999;BME280;71598;46.516;-122.928;2023-11-21T04:46:55;101296.74;;;25.98;18.08
81999;BME280;71598;46.516;-122.928;2023-11-21T04:49:22;101295.74;;;26.01;18.12
81999;BME280;71598;46.516;-122.928;2023-11-21T04:51:46;101297.98;;;25.84;18.09
81999;BME280;71598;46.516;-122.928;2023-11-21T04:54:11;101296.68;;;26.20;18.10
81999;BME280;71598;46.516;-122.928;2023-11-21T04:56:37;101288.92;;;26.06;18.10
81999;BME280;71598;46.516;-122.928;2023-11-21T04:59:02;101281.68;;;26.17;18.04
81999;BME280;71598;46.516;-122.928;2023-11-21T05:01:28;101277.87;;;26.15;17.94
81999;BME280;71598;46.516;-122.928;2023-11-21T05:03:52;101271.94;;;26.61;17.74
81999;BME280;71598;46.516;-122.928;2023-11-21T05:06:18;101261.90;;;26.35;17.65
81999;BME280;71598;46.516;-122.928;2023-11-21T05:08:43;101251.92;;;26.59;17.59
81999;BME280;71598;46.516;-122.928;2023-11-21T05:11:09;101249.37;;;26.64;17.41
81999;BME280;71598;46.516;-122.928;2023-11-21T05:13:35;101245.50;;;26.89;17.31
81999;BME280;71598;46.516;-122.928;2023-11-21T05:16:00;101241.81;;;26.76;17.25
81999;BME280;71598;46.516;-122.928;2023-11-21T05:18:26;101244.56;;;26.88;17.17
81999;BME280;71598;46.516;-122.928;2023-11-21T05:20:52;101248.82;;;27.12;17.14
81999;BME280;71598;46.516;-122.928;2023-11-21T05:23:17;101244.99;;;27.30;17.16
81999;BME280;71598;46.516;-122.928;2023-11-21T05:25:42;101252.53;;;26.30;17.51
81999;BME280;71598;46.516;-122.928;2023-11-21T05:28:08;101261.12;;;24.46;18.36
81999;BME280;71598;46.516;-122.928;2023-11-21T05:30:38;101265.70;;;24.30;18.53
81999;BME280;71598;46.516;-122.928;2023-11-21T05:32:59;101267.09;;;24.60;18.48
81999;BME280;71598;46.516;-122.928;2023-11-21T05:35:25;101269.76;;;24.46;18.49
81999;BME280;71598;46.516;-122.928;2023-11-21T05:37:50;101273.22;;;24.51;18.48
81999;BME280;71598;46.516;-122.928;2023-11-21T05:40:18;101270.81;;;24.54;18.40
81999;BME280;71598;46.516;-122.928;2023-11-21T05:42:42;101258.55;;;24.53;18.33
81999;BME280;71598;46.516;-122.928;2023-11-21T05:45:08;101249.54;;;24.59;18.32
81999;BME280;71598;46.516;-122.928;2023-11-21T05:47:32;101241.89;;;24.59;18.25
81999;BME280;71598;46.516;-122.928;2023-11-21T05:49:58;101240.90;;;24.85;18.28
81999;BME280;71598;46.516;-122.928;2023-11-21T05:52:23;101238.44;;;24.37;18.44
81999;BME280;71598;46.516;-122.928;2023-11-21T05:54:49;101232.23;;;24.49;18.36
81999;BME280;71598;46.516;-122.928;2023-11-21T05:57:14;101232.34;;;24.66;18.35
81999;BME280;71598;46.516;-122.928;2023-11-21T05:59:40;101227.67;;;24.86;18.24
81999;BME280;71598;46.516;-122.928;2023-11-21T06:02:05;101226.92;;;24.76;18.24
81999;BME280;71598;46.516;-122.928;2023-11-21T06:04:30;101223.12;;;24.71;18.33
81999;BME280;71598;46.516;-122.928;2023-11-21T06:06:56;101221.48;;;24.63;18.33
81999;BME280;71598;46.516;-122.928;2023-11-21T06:09:21;101215.89;;;24.77;18.25
81999;BME280;71598;46.516;-122.928;2023-11-21T06:11:46;101215.17;;;24.83;18.27
81999;BME280;71598;46.516;-122.928;2023-11-21T06:14:11;101211.41;;;24.87;18.20
81999;BME280;71598;46.516;-122.928;2023-11-21T06:16:37;101207.95;;;24.74;18.27
81999;BME280;71598;46.516;-122.928;2023-11-21T06:19:02;101204.76;;;24.78;18.29
81999;BME280;71598;46.516;-122.928;2023-11-21T06:21:28;101196.72;;;24.63;18.33
81999;BME280;71598;46.516;-122.928;2023-11-21T06:23:54;101189.95;;;24.73;18.35
81999;BME280;71598;46.516;-122.928;2023-11-21T06:26:19;101190.47;;;24.46;18.39
81999;BME280;71598;46.516;-122.928;2023-11-21T06:28:44;101190.88;;;24.56;18.42
81999;BME280;71598;46.516;-122.928;2023-11-21T06:31:11;101189.67;;;24.47;18.43
81999;BME280;71598;46.516;-122.928;2023-11-21T06:33:36;101178.52;;;24.51;18.48
81999;BME280;71598;46.516;-122.928;2023-11-21T06:36:01;101169.02;;;24.36;18.54
81999;BME280;71598;46.516;-122.928;2023-11-21T06:38:27;101161.09;;;24.29;18.53
81999;BME280;71598;46.516;-122.928;2023-11-21T06:40:53;101149.69;;;24.33;18.52
81999;BME280;71598;46.516;-122.928;2023-11-21T06:43:18;101138.89;;;24.25;18.56
81999;BME280;71598;46.516;-122.928;2023-11-21T06:45:43;101130.42;;;24.38;18.46
81999;BME280;71598;46.516;-122.928;2023-11-21T06:48:12;101129.38;;;24.22;18.60
81999;BME280;71598;46.516;-122.928;2023-11-21T06:50:50;101125.83;;;23.62;18.79
81999;BME280;71598;46.516;-122.928;2023-11-21T06:53:08;101136.51;;;23.24;19.01
81999;BME280;71598;46.516;-122.928;2023-11-21T06:55:34;101139.19;;;22.94;19.25
81999;BME280;71598;46.516;-122.928;2023-11-21T06:57:58;101135.12;;;22.50;19.48
81999;BME280;71598;46.516;-122.928;2023-11-21T07:00:24;101135.56;;;22.25;19.68
81999;BME280;71598;46.516;-122.928;2023-11-21T07:02:50;101121.06;;;21.95;19.87
81999;BME280;71598;46.516;-122.928;2023-11-21T07:05:15;101113.19;;;22.15;20.05
81999;BME280;71598;46.516;-122.928;2023-11-21T07:07:41;101108.33;;;21.76;20.17
81999;BME280;71598;46.516;-122.928;2023-11-21T07:10:07;101111.57;;;21.25;20.30
81999;BME280;71598;46.516;-122.928;2023-11-21T07:12:39;101108.14;;;21.36;20.47
81999;BME280;71598;46.516;-122.928;2023-11-21T07:15:04;101107.86;;;21.40;20.56
81999;BME280;71598;46.516;-122.928;2023-11-21T07:17:29;101112.92;;;21.31;20.67
81999;BME280;71598;46.516;-122.928;2023-11-21T07:19:54;101108.31;;;21.02;20.76
81999;BME280;71598;46.516;-122.928;2023-11-21T07:22:20;101108.23;;;21.04;20.87
81999;BME280;71598;46.516;-122.928;2023-11-21T07:24:48;101099.83;;;20.71;20.94
81999;BME280;71598;46.516;-122.928;2023-11-21T07:27:10;101101.65;;;20.67;21.02
81999;BME280;71598;46.516;-122.928;2023-11-21T07:29:36;101098.91;;;20.58;21.06
81999;BME280;71598;46.516;-122.928;2023-11-21T07:32:01;101091.73;;;20.49;21.07
81999;BME280;71598;46.516;-122.928;2023-11-21T07:34:27;101079.58;;;20.59;21.10
81999;BME280;71598;46.516;-122.928;2023-11-21T07:36:52;101072.27;;;20.34;21.18
81999;BME280;71598;46.516;-122.928;2023-11-21T07:39:18;101070.63;;;20.48;21.20
81999;BME280;71598;46.516;-122.928;2023-11-21T07:41:44;101075.26;;;20.40;21.21
81999;BME280;71598;46.516;-122.928;2023-11-21T07:44:09;101073.91;;;20.30;21.20
81999;BME280;71598;46.516;-122.928;2023-11-21T07:46:35;101068.73;;;20.42;21.23
81999;BME280;71598;46.516;-122.928;2023-11-21T07:49:00;101059.94;;;20.27;21.27
81999;BME280;71598;46.516;-122.928;2023-11-21T07:51:26;101062.69;;;20.20;21.32
81999;BME280;71598;46.516;-122.928;2023-11-21T07:53:51;101064.85;;;20.16;21.34
81999;BME280;71598;46.516;-122.928;2023-11-21T07:56:16;101070.83;;;20.35;21.35
81999;BME280;71598;46.516;-122.928;2023-11-21T07:58:41;101074.12;;;20.39;21.40
81999;BME280;71598;46.516;-122.928;2023-11-21T08:01:07;101074.65;;;19.32;21.43
81999;BME280;71598;46.516;-122.928;2023-11-21T08:03:34;101065.25;;;20.02;21.42
81999;BME280;71598;46.516;-122.928;2023-11-21T08:06:00;101061.45;;;19.74;21.44
81999;BME280;71598;46.516;-122.928;2023-11-21T08:08:24;101055.16;;;19.96;21.44
81999;BME280;71598;46.516;-122.928;2023-11-21T08:10:50;101049.42;;;19.92;21.47
81999;BME280;71598;46.516;-122.928;2023-11-21T08:13:16;101038.29;;;19.80;21.50
81999;BME280;71598;46.516;-122.928;2023-11-21T08:15:41;101036.31;;;19.75;21.52
81999;BME280;71598;46.516;-122.928;2023-11-21T08:18:07;101051.82;;;19.72;21.52
81999;BME280;71598;46.516;-122.928;2023-11-21T08:20:34;101056.60;;;19.78;21.56
81999;BME280;71598;46.516;-122.928;2023-11-21T08:22:58;101051.01;;;19.69;21.58
81999;BME280;71598;46.516;-122.928;2023-11-21T08:25:23;101050.46;;;19.81;21.59
81999;BME280;71598;46.516;-122.928;2023-11-21T08:27:49;101044.24;;;19.43;21.62
81999;BME280;71598;46.516;-122.928;2023-11-21T08:30:15;101039.58;;;19.83;21.58
81999;BME280;71598;46.516;-122.928;2023-11-21T08:32:39;101032.11;;;19.60;21.58
81999;BME280;71598;46.516;-122.928;2023-11-21T08:35:06;101025.00;;;19.59;21.59
81999;BME280;71598;46.516;-122.928;2023-11-21T08:37:31;101025.91;;;19.53;21.58
81999;BME280;71598;46.516;-122.928;2023-11-21T08:39:58;101034.60;;;19.62;21.60
81999;BME280;71598;46.516;-122.928;2023-11-21T08:42:22;101030.63;;;19.79;21.60
81999;BME280;71598;46.516;-122.928;2023-11-21T08:44:47;101024.28;;;19.47;21.64
81999;BME280;71598;46.516;-122.928;2023-11-21T08:47:13;101022.60;;;19.44;21.61
81999;BME280;71598;46.516;-122.928;2023-11-21T08:49:38;101024.10;;;19.37;21.67
81999;BME280;71598;46.516;-122.928;2023-11-21T08:52:04;101031.94;;;19.31;21.63
81999;BME280;71598;46.516;-122.928;2023-11-21T08:54:28;101032.13;;;19.27;21.65
81999;BME280;71598;46.516;-122.928;2023-11-21T08:56:53;101032.13;;;19.35;21.61
81999;BME280;71598;46.516;-122.928;2023-11-21T08:59:18;101027.27;;;19.56;21.61
81999;BME280;71598;46.516;-122.928;2023-11-21T09:01:45;101021.29;;;19.23;21.61
81999;BME280;71598;46.516;-122.928;2023-11-21T09:04:09;101010.65;;;19.24;21.64
81999;BME280;71598;46.516;-122.928;2023-11-21T09:06:35;101004.15;;;19.08;21.62
81999;BME280;71598;46.516;-122.928;2023-11-21T09:09:02;101000.82;;;19.13;21.67
81999;BME280;71598;46.516;-122.928;2023-11-21T09:11:26;100995.65;;;19.14;21.62
81999;BME280;71598;46.516;-122.928;2023-11-21T09:13:52;100995.20;;;19.33;21.70
81999;BME280;71598;46.516;-122.928;2023-11-21T09:16:17;100997.39;;;19.05;21.69
81999;BME280;71598;46.516;-122.928;2023-11-21T09:18:43;100993.68;;;18.99;21.68
81999;BME280;71598;46.516;-122.928;2023-11-21T09:21:08;100983.15;;;19.08;21.76
81999;BME280;71598;46.516;-122.928;2023-11-21T09:23:34;100980.66;;;18.79;21.85
81999;BME280;71598;46.516;-122.928;2023-11-21T09:25:59;100981.67;;;18.94;21.80
81999;BME280;71598;46.516;-122.928;2023-11-21T09:28:25;100994.10;;;18.95;21.71
81999;BME280;71598;46.516;-122.928;2023-11-21T09:30:50;100998.65;;;19.20;21.55
81999;BME280;71598;46.516;-122.928;2023-11-21T09:33:16;100995.05;;;19.10;21.58
81999;BME280;71598;46.516;-122.928;2023-11-21T09:35:41;100997.76;;;19.07;21.49
81999;BME280;71598;46.516;-122.928;2023-11-21T09:38:07;101000.95;;;19.22;21.53
81999;BME280;71598;46.516;-122.928;2023-11-21T09:40:33;101001.85;;;18.96;21.49
81999;BME280;71598;46.516;-122.928;2023-11-21T09:42:58;100999.43;;;19.02;21.53
81999;BME280;71598;46.516;-122.928;2023-11-21T09:45:26;100994.51;;;18.87;21.53
81999;BME280;71598;46.516;-122.928;2023-11-21T09:47:50;100987.84;;;18.73;21.58
81999;BME280;71598;46.516;-122.928;2023-11-21T09:50:17;100984.90;;;18.98;21.61
81999;BME280;71598;46.516;-122.928;2023-11-21T09:52:46;100987.73;;;18.85;21.61
81999;BME280;71598;46.516;-122.928;2023-11-21T09:55:07;100981.16;;;18.99;21.64
81999;BME280;71598;46.516;-122.928;2023-11-21T09:57:32;100986.18;;;18.89;21.61
81999;BME280;71598;46.516;-122.928;2023-11-21T09:59:56;100990.15;;;18.85;21.69
81999;BME280;71598;46.516;-122.928;2023-11-21T10:02:22;100995.06;;;18.89;21.66
81999;BME280;71598;46.516;-122.928;2023-11-21T10:04:47;100990.66;;;18.68;21.77
81999;BME280;71598;46.516;-122.928;2023-11-21T10:07:13;100991.10;;;18.60;21.73
81999;BME280;71598;46.516;-122.928;2023-11-21T10:09:38;100985.44;;;18.82;21.62
81999;BME280;71598;46.516;-122.928;2023-11-21T10:12:04;100986.28;;;19.27;21.55
81999;BME280;71598;46.516;-122.928;2023-11-21T10:14:29;100992.72;;;19.03;21.44
81999;BME280;71598;46.516;-122.928;2023-11-21T10:16:54;100993.12;;;18.93;21.33
81999;BME280;71598;46.516;-122.928;2023-11-21T10:19:20;100986.69;;;18.93;21.46
81999;BME280;71598;46.516;-122.928;2023-11-21T10:21:45;100976.77;;;18.57;21.41
81999;BME280;71598;46.516;-122.928;2023-11-21T10:24:10;100974.41;;;18.78;21.44
81999;BME280;71598;46.516;-122.928;2023-11-21T10:26:37;100975.86;;;18.87;21.42
81999;BME280;71598;46.516;-122.928;2023-11-21T10:29:02;100983.51;;;19.09;21.42
81999;BME280;71598;46.516;-122.928;2023-11-21T10:31:28;100982.30;;;18.81;21.43
81999;BME280;71598;46.516;-122.928;2023-11-21T10:33:52;100980.60;;;19.25;21.56
81999;BME280;71598;46.516;-122.928;2023-11-21T10:36:26;100978.53;;;19.27;21.54
81999;BME280;71598;46.516;-122.928;2023-11-21T10:38:43;100971.37;;;19.09;21.54
81999;BME280;71598;46.516;-122.928;2023-11-21T10:41:12;100967.70;;;18.87;21.50
81999;BME280;71598;46.516;-122.928;2023-11-21T10:43:34;100974.51;;;18.79;21.40
81999;BME280;71598;46.516;-122.928;2023-11-21T10:45:59;100976.05;;;18.96;21.41
81999;BME280;71598;46.516;-122.928;2023-11-21T10:48:26;100963.30;;;18.49;21.42
81999;BME280;71598;46.516;-122.928;2023-11-21T10:50:50;100958.95;;;18.94;21.43
81999;BME280;71598;46.516;-122.928;2023-11-21T10:53:16;100964.33;;;18.77;21.46
81999;BME280;71598;46.516;-122.928;2023-11-21T10:55:43;100965.67;;;18.76;21.46
81999;BME280;71598;46.516;-122.928;2023-11-21T10:58:07;100962.88;;;18.72;21.59
81999;BME280;71598;46.516;-122.928;2023-11-21T11:00:34;100969.67;;;19.10;21.51
81999;BME280;71598;46.516;-122.928;2023-11-21T11:02:58;100975.53;;;19.07;21.53
81999;BME280;71598;46.516;-122.928;2023-11-21T11:05:25;100971.05;;;18.70;21.47
81999;BME280;71598;46.516;-122.928;2023-11-21T11:07:52;100971.22;;;18.99;21.36
81999;BME280;71598;46.516;-122.928;2023-11-21T11:10:14;100971.93;;;19.30;21.12
81999;BME280;71598;46.516;-122.928;2023-11-21T11:12:41;100977.41;;;19.04;21.07
81999;BME280;71598;46.516;-122.928;2023-11-21T11:15:06;100971.92;;;19.12;21.15
81999;BME280;71598;46.516;-122.928;2023-11-21T11:17:46;100964.53;;;19.11;21.20
81999;BME280;71598;46.516;-122.928;2023-11-21T11:19:57;100956.34;;;19.32;21.27
81999;BME280;71598;46.516;-122.928;2023-11-21T11:22:36;100949.33;;;19.27;21.31
81999;BME280;71598;46.516;-122.928;2023-11-21T11:25:03;100950.34;;;18.39;21.42
81999;BME280;71598;46.516;-122.928;2023-11-21T11:27:21;100947.02;;;18.80;21.44
81999;BME280;71598;46.516;-122.928;2023-11-21T11:29:47;100944.34;;;18.69;21.16
81999;BME280;71598;46.516;-122.928;2023-11-21T11:32:12;100943.30;;;19.09;21.18
81999;BME280;71598;46.516;-122.928;2023-11-21T11:34:32;100941.33;;;19.03;21.25
81999;BME280;71598;46.516;-122.928;2023-11-21T11:36:59;100942.49;;;18.80;21.30
81999;BME280;71598;46.516;-122.928;2023-11-21T11:39:29;100949.09;;;18.99;21.24
81999;BME280;71598;46.516;-122.928;2023-11-21T11:41:45;100949.11;;;19.04;21.15
81999;BME280;71598;46.516;-122.928;2023-11-21T11:44:48;100948.94;;;18.71;21.14
81999;BME280;71598;46.516;-122.928;2023-11-21T11:46:44;100948.30;;;19.19;21.19
81999;BME280;71598;46.516;-122.928;2023-11-21T11:49:04;100953.59;;;18.81;21.24
81999;BME280;71598;46.516;-122.928;2023-11-21T11:51:30;100951.07;;;18.99;21.26
81999;BME280;71598;46.516;-122.928;2023-11-21T11:53:52;100950.21;;;18.78;21.40
81999;BME280;71598;46.516;-122.928;2023-11-21T11:56:24;100951.80;;;19.05;21.35
81999;BME280;71598;46.516;-122.928;2023-11-21T11:58:43;100944.83;;;18.98;21.35
81999;BME280;71598;46.516;-122.928;2023-11-21T12:01:08;100942.67;;;18.71;21.36
81999;BME280;71598;46.516;-122.928;2023-11-21T12:03:35;100938.45;;;18.72;21.26
81999;BME280;71598;46.516;-122.928;2023-11-21T12:06:01;100946.05;;;18.98;21.21
81999;BME280;71598;46.516;-122.928;2023-11-21T12:08:24;100954.64;;;18.77;21.29
81999;BME280;71598;46.516;-122.928;2023-11-21T12:10:51;100955.24;;;18.75;21.39